X  Sluiten METAR luchtvaart weer gegevens      EHAM Amsterdam Airport Schiphol
Temperatuur
10°C Temperatuur
8°C Dauwpunt
88% Vochtigheid



Wind
14 KM/U
9 MPH
4 M/S
8 KTS



250°
WZW
Huidig weer

Wat bewolking Wat bewolking
Luchtdruk 1007.92 (hPa) - 29.76 (inHg)
Zicht 6.2 (mijl) - 10 (km)
Vliegveld
Vliegveld code EHAM

Locatie : Amsterdam Airport Schiphol
Afstand: 2 (km)

Metar:
EHAM 172125Z 25008KT 9999 FEW010 10/08 Q1008 NOSIG

Tijd: 17-05-2021 23:25 CEST